createdAt,value
2023-04-16T00:00:39.072Z,98892.59
2023-04-16T00:01:41.056Z,98888.31
2023-04-16T00:02:42.748Z,98896.31
2023-04-16T00:03:44.636Z,98890.38
2023-04-16T00:04:46.327Z,98890.94
2023-04-16T00:05:47.887Z,98887.59
2023-04-16T00:06:49.431Z,98897.81
2023-04-16T00:07:50.963Z,98894.88
2023-04-16T00:08:52.516Z,98891.84
2023-04-16T00:09:54.071Z,98890.69
2023-04-16T00:10:55.662Z,98888.06
2023-04-16T00:11:57.226Z,98893.69
2023-04-16T00:12:58.773Z,98894.38
2023-04-16T00:14:00.411Z,98893.69
2023-04-16T00:15:02.107Z,98906.94
2023-04-16T00:16:03.795Z,98899.50
2023-04-16T00:17:05.466Z,98904.50
2023-04-16T00:18:07.076Z,98899.38
2023-04-16T00:19:08.927Z,98903.09
2023-04-16T00:20:11.037Z,98908.06
2023-04-16T00:21:12.603Z,98901.56
2023-04-16T00:22:14.144Z,98903.69
2023-04-16T00:23:15.684Z,98900.38
2023-04-16T00:24:17.208Z,98903.16
2023-04-16T00:25:18.765Z,98901.78
2023-04-16T00:26:20.354Z,98904.88
2023-04-16T00:27:22.037Z,98905.16
2023-04-16T00:28:23.613Z,98902.81
2023-04-16T00:29:25.245Z,98897.00
2023-04-16T00:30:26.842Z,98907.13
2023-04-16T00:31:29.604Z,98905.91
2023-04-16T00:32:31.209Z,98900.63
2023-04-16T00:33:32.763Z,98903.97
2023-04-16T00:34:35.224Z,98905.47
2023-04-16T00:35:36.813Z,98906.19
2023-04-16T00:36:38.407Z,98910.31
2023-04-16T00:37:39.961Z,98911.16
2023-04-16T00:38:41.520Z,98911.16
2023-04-16T00:39:43.114Z,98911.28
2023-04-16T00:40:44.684Z,98915.44
2023-04-16T00:41:46.354Z,98915.16
2023-04-16T00:42:47.939Z,98921.50
2023-04-16T00:43:50.343Z,98916.94
2023-04-16T00:44:52.019Z,98919.72
2023-04-16T00:45:56.490Z,98922.75
2023-04-16T00:46:59.468Z,98922.28
2023-04-16T00:48:01.491Z,98923.06
2023-04-16T00:49:04.159Z,98921.81
2023-04-16T00:50:06.358Z,98917.50
2023-04-16T00:51:08.874Z,98920.63
2023-04-16T00:52:11.860Z,98921.41
2023-04-16T00:53:14.631Z,98922.97
2023-04-16T00:54:16.317Z,98924.88
2023-04-16T00:56:20.863Z,98923.25
2023-04-16T00:57:23.432Z,98921.31
2023-04-16T00:58:25.528Z,98917.34
2023-04-16T00:59:27.634Z,98925.41
2023-04-16T01:00:29.456Z,98921.00
2023-04-16T01:01:31.071Z,98924.59
2023-04-16T01:02:34.085Z,98928.03
2023-04-16T01:03:41.098Z,98924.44
2023-04-16T01:04:43.113Z,98939.38
2023-04-16T01:05:44.861Z,98927.06
2023-04-16T01:06:46.434Z,98937.03
2023-04-16T01:07:49.077Z,98938.25
2023-04-16T01:08:50.642Z,98937.56
2023-04-16T01:09:52.192Z,98943.25
2023-04-16T01:10:53.791Z,98945.47
2023-04-16T01:11:55.365Z,98944.53
2023-04-16T01:12:56.906Z,98942.44
2023-04-16T01:13:58.530Z,98948.16
2023-04-16T01:15:00.205Z,98943.59
2023-04-16T01:16:01.848Z,98947.75
2023-04-16T01:17:04.151Z,98947.47
2023-04-16T01:18:18.946Z,98945.53
2023-04-16T01:19:20.519Z,98950.50
2023-04-16T01:20:22.083Z,98939.59
2023-04-16T01:21:23.626Z,98938.16
2023-04-16T01:22:25.180Z,98940.34
2023-04-16T01:23:26.803Z,98934.22
2023-04-16T01:24:28.414Z,98940.50
2023-04-16T01:25:30.025Z,98945.38
2023-04-16T01:26:31.840Z,98942.59
2023-04-16T01:27:33.421Z,98941.56
2023-04-16T01:28:35.302Z,98938.38
2023-04-16T01:29:37.016Z,98946.63
2023-04-16T01:30:38.795Z,98948.56
2023-04-16T01:31:57.506Z,98946.16
2023-04-16T01:33:18.428Z,98951.72
2023-04-16T01:34:20.048Z,98945.44
2023-04-16T01:35:21.591Z,98943.88
2023-04-16T01:36:23.190Z,98945.00
2023-04-16T01:37:24.717Z,98941.72
2023-04-16T01:38:26.265Z,98947.44
2023-04-16T01:39:27.841Z,98949.78
2023-04-16T01:40:31.844Z,98944.25
2023-04-16T01:41:33.955Z,98947.56
2023-04-16T01:42:35.729Z,98943.75
2023-04-16T01:43:40.075Z,98940.97
2023-04-16T01:44:41.903Z,98943.34
2023-04-16T01:45:43.634Z,98947.66
2023-04-16T01:46:46.671Z,98949.41
2023-04-16T01:47:50.364Z,98945.72
2023-04-16T01:48:51.973Z,98948.91
2023-04-16T01:49:54.264Z,98951.97
2023-04-16T01:50:55.920Z,98946.59
2023-04-16T01:51:57.486Z,98959.56
2023-04-16T01:52:59.057Z,98948.63
2023-04-16T01:54:01.178Z,98951.53
2023-04-16T01:55:03.183Z,98952.06
2023-04-16T01:56:05.892Z,98960.47
2023-04-16T01:57:07.576Z,98952.13
2023-04-16T01:58:09.281Z,98955.59
2023-04-16T01:59:11.041Z,98956.00
2023-04-16T02:00:15.874Z,98957.53
2023-04-16T02:01:20.219Z,98955.72
2023-04-16T02:02:22.636Z,98954.06
2023-04-16T02:03:24.655Z,98955.88
2023-04-16T02:04:26.462Z,98953.38
2023-04-16T02:05:28.013Z,98955.03
2023-04-16T02:06:29.678Z,98961.94
2023-04-16T02:07:31.222Z,98954.19
2023-04-16T02:08:32.980Z,98956.56
2023-04-16T02:09:35.367Z,98954.50
2023-04-16T02:10:39.472Z,98959.34
2023-04-16T02:11:42.978Z,98958.25
2023-04-16T02:12:44.534Z,98952.31
2023-04-16T02:13:47.315Z,98955.22
2023-04-16T02:14:48.962Z,98950.19
2023-04-16T02:15:52.775Z,98953.94
2023-04-16T02:17:20.482Z,98950.75
2023-04-16T02:18:25.357Z,98948.13
2023-04-16T02:19:27.209Z,98950.88
2023-04-16T02:20:29.006Z,98954.59
2023-04-16T02:21:34.523Z,98951.97
2023-04-16T02:22:36.286Z,98959.13
2023-04-16T02:23:37.803Z,98953.31
2023-04-16T02:24:39.366Z,98962.00
2023-04-16T02:25:47.608Z,98958.81
2023-04-16T02:26:50.356Z,98955.81
2023-04-16T02:27:53.410Z,98961.91
2023-04-16T02:29:02.316Z,98963.69
2023-04-16T02:30:12.091Z,98958.25
2023-04-16T02:31:14.305Z,98959.78
2023-04-16T02:32:19.156Z,98958.72
2023-04-16T02:33:22.070Z,98950.66
2023-04-16T02:34:32.313Z,98956.06
2023-04-16T02:35:35.286Z,98966.09
2023-04-16T02:36:36.990Z,98960.50
2023-04-16T02:37:38.665Z,98955.59
2023-04-16T02:38:40.231Z,98960.44
2023-04-16T02:39:41.895Z,98959.94
2023-04-16T02:40:43.418Z,98967.81
2023-04-16T02:41:45.007Z,98966.25
2023-04-16T02:42:46.631Z,98964.09
2023-04-16T02:43:48.380Z,98966.13
2023-04-16T02:44:49.970Z,98969.59
2023-04-16T02:45:51.557Z,98963.94
2023-04-16T02:46:53.205Z,98962.63
2023-04-16T02:47:54.931Z,98964.81
2023-04-16T02:48:56.525Z,98965.66
2023-04-16T02:49:58.127Z,98967.06
2023-04-16T02:50:59.725Z,98964.78
2023-04-16T02:52:01.305Z,98964.16
2023-04-16T02:53:02.961Z,98965.31
2023-04-16T02:54:04.569Z,98972.69
2023-04-16T02:55:07.492Z,98963.06
2023-04-16T02:56:09.117Z,98968.31
2023-04-16T02:57:10.695Z,98979.22
2023-04-16T02:58:12.267Z,98975.81
2023-04-16T02:59:13.880Z,98981.88
2023-04-16T03:00:15.802Z,98977.66
2023-04-16T03:01:17.461Z,98980.50
2023-04-16T03:02:19.258Z,98980.94
2023-04-16T03:03:21.255Z,98982.75
2023-04-16T03:04:22.939Z,98982.63
2023-04-16T03:05:24.614Z,98984.31
2023-04-16T03:06:26.217Z,98984.31
2023-04-16T03:07:27.767Z,98982.50
2023-04-16T03:08:29.317Z,98984.88
2023-04-16T03:09:30.981Z,98982.94
2023-04-16T03:10:33.192Z,98983.09
2023-04-16T03:11:34.768Z,98987.84
2023-04-16T03:12:36.374Z,98993.84
2023-04-16T03:13:41.448Z,98994.91
2023-04-16T03:14:43.019Z,98994.44
2023-04-16T03:15:48.973Z,98998.97
2023-04-16T03:16:50.573Z,99000.50
2023-04-16T03:17:52.152Z,98999.66
2023-04-16T03:18:53.740Z,98999.34
2023-04-16T03:19:55.307Z,98997.22
2023-04-16T03:20:56.856Z,98998.03
2023-04-16T03:21:58.431Z,99001.94
2023-04-16T03:23:00.007Z,98998.44
2023-04-16T03:24:01.638Z,98995.50
2023-04-16T03:25:03.352Z,98998.69
2023-04-16T03:26:06.062Z,98996.56
2023-04-16T03:27:07.625Z,99002.41
2023-04-16T03:28:09.232Z,99003.13
2023-04-16T03:29:11.962Z,99006.69
2023-04-16T03:30:14.708Z,99007.78
2023-04-16T03:31:16.301Z,99013.72
2023-04-16T03:32:18.048Z,99008.03
2023-04-16T03:33:20.373Z,99005.88
2023-04-16T03:34:21.941Z,99010.38
2023-04-16T03:35:23.581Z,99007.78
2023-04-16T03:36:25.204Z,99007.56
2023-04-16T03:37:26.807Z,99007.06
2023-04-16T03:38:28.380Z,98999.69
2023-04-16T03:39:32.941Z,99007.91
2023-04-16T03:40:34.543Z,99015.88
2023-04-16T03:41:36.218Z,99013.72
2023-04-16T03:42:38.037Z,99009.06
2023-04-16T03:43:40.479Z,99016.34
2023-04-16T03:44:42.320Z,99018.03
2023-04-16T03:45:47.422Z,99021.97
2023-04-16T03:46:49.091Z,99020.25
2023-04-16T03:47:50.815Z,99022.53
2023-04-16T03:48:52.562Z,99024.94
2023-04-16T03:49:54.392Z,99020.41
2023-04-16T03:50:55.976Z,99025.38
2023-04-16T03:51:57.829Z,99029.22
2023-04-16T03:53:00.436Z,99022.16
2023-04-16T03:54:02.124Z,99035.41
2023-04-16T03:55:04.367Z,99030.88
2023-04-16T03:56:06.758Z,99032.44
2023-04-16T03:57:08.438Z,99036.56
2023-04-16T03:58:10.320Z,99039.09
2023-04-16T03:59:11.978Z,99043.47
2023-04-16T04:00:13.747Z,99043.38
2023-04-16T04:01:38.592Z,99046.59
2023-04-16T04:02:41.685Z,99048.13
2023-04-16T04:03:49.890Z,99048.94
2023-04-16T04:04:51.772Z,99048.50
2023-04-16T04:05:53.426Z,99058.38
2023-04-16T04:07:04.061Z,99056.00
2023-04-16T04:08:06.060Z,99053.00
2023-04-16T04:09:08.080Z,99055.25
2023-04-16T04:10:09.975Z,99055.88
2023-04-16T04:11:14.526Z,99056.34
2023-04-16T04:12:17.708Z,99058.47
2023-04-16T04:13:20.912Z,99062.31
2023-04-16T04:14:23.515Z,99061.94
2023-04-16T04:15:25.106Z,99059.91
2023-04-16T04:16:27.422Z,99062.91
2023-04-16T04:17:29.208Z,99066.69
2023-04-16T04:18:30.802Z,99068.47
2023-04-16T04:19:34.382Z,99069.78
2023-04-16T04:20:40.129Z,99066.22
2023-04-16T04:21:42.518Z,99072.53
2023-04-16T04:22:44.085Z,99074.78
2023-04-16T04:23:46.784Z,99076.22
2023-04-16T04:24:48.432Z,99078.38
2023-04-16T04:25:50.054Z,99075.97
2023-04-16T04:26:51.666Z,99075.50
2023-04-16T04:27:53.218Z,99078.47
2023-04-16T04:28:54.775Z,99080.13
2023-04-16T04:29:56.676Z,99084.16
2023-04-16T04:31:00.025Z,99084.66
2023-04-16T04:32:01.711Z,99092.38
2023-04-16T04:33:03.520Z,99090.25
2023-04-16T04:34:05.075Z,99088.09
2023-04-16T04:35:07.626Z,99095.25
2023-04-16T04:36:09.222Z,99092.75
2023-04-16T04:37:11.518Z,99087.28
2023-04-16T04:38:14.962Z,99090.09
2023-04-16T04:39:17.755Z,99094.97
2023-04-16T04:40:19.527Z,99095.13
2023-04-16T04:41:21.220Z,99095.84
2023-04-16T04:42:23.123Z,99094.19
2023-04-16T04:43:25.186Z,99100.38
2023-04-16T04:44:26.785Z,99098.13
2023-04-16T04:45:31.195Z,99097.88
2023-04-16T04:46:33.552Z,99096.09
2023-04-16T04:47:35.316Z,99096.78
2023-04-16T04:48:36.862Z,99099.16
2023-04-16T04:49:38.443Z,99108.44
2023-04-16T04:50:41.294Z,99103.16
2023-04-16T04:51:43.333Z,99108.25
2023-04-16T04:52:44.923Z,99105.31
2023-04-16T04:53:46.524Z,99105.28
2023-04-16T04:54:48.071Z,99098.44
2023-04-16T04:55:53.886Z,99101.25
2023-04-16T04:56:57.219Z,99104.91
2023-04-16T04:57:58.992Z,99103.28
2023-04-16T04:59:01.011Z,99106.13
2023-04-16T05:00:02.827Z,99107.13
2023-04-16T05:01:11.772Z,99113.97
2023-04-16T05:02:13.725Z,99105.59
2023-04-16T05:03:21.536Z,99111.56
2023-04-16T05:04:23.263Z,99102.19
2023-04-16T05:05:24.926Z,99111.50
2023-04-16T05:06:28.313Z,99114.59
2023-04-16T05:07:32.159Z,99110.53
2023-04-16T05:08:33.759Z,99110.25
2023-04-16T05:09:35.298Z,99113.91
2023-04-16T05:10:36.922Z,99122.47
2023-04-16T05:11:38.965Z,99118.88
2023-04-16T05:12:40.507Z,99118.91
2023-04-16T05:13:42.053Z,99121.66
2023-04-16T05:14:43.640Z,99118.19
2023-04-16T05:15:45.531Z,99121.78
2023-04-16T05:16:47.182Z,99112.22
2023-04-16T05:17:48.838Z,99122.31
2023-04-16T05:18:50.468Z,99117.03
2023-04-16T05:19:52.418Z,99119.63
2023-04-16T05:20:53.988Z,99123.63
2023-04-16T05:21:55.691Z,99123.72
2023-04-16T05:22:57.246Z,99114.25
2023-04-16T05:23:58.939Z,99119.28
2023-04-16T05:25:00.518Z,99118.81
2023-04-16T05:26:02.074Z,99119.91
2023-04-16T05:27:03.654Z,99125.63
2023-04-16T05:28:05.326Z,99130.03
2023-04-16T05:29:06.923Z,99128.19
2023-04-16T05:30:09.191Z,99130.38
2023-04-16T05:31:10.813Z,99131.19
2023-04-16T05:32:12.388Z,99126.78
2023-04-16T05:33:13.943Z,99129.66
2023-04-16T05:34:15.610Z,99135.09
2023-04-16T05:35:17.803Z,99134.78
2023-04-16T05:36:19.455Z,99134.34
2023-04-16T05:37:21.041Z,99131.72
2023-04-16T05:38:22.650Z,99131.78
2023-04-16T05:39:25.692Z,99136.81
2023-04-16T05:40:27.513Z,99146.28
2023-04-16T05:41:29.378Z,99137.47
2023-04-16T05:42:31.266Z,99141.88
2023-04-16T05:43:33.027Z,99143.84
2023-04-16T05:44:38.909Z,99157.97
2023-04-16T05:45:43.489Z,99159.91
2023-04-16T05:46:45.876Z,99156.16
2023-04-16T05:47:47.766Z,99158.66
2023-04-16T05:48:49.658Z,99162.50
2023-04-16T05:49:51.402Z,99154.84
2023-04-16T05:50:53.225Z,99153.72
2023-04-16T05:51:54.948Z,99158.38
2023-04-16T05:52:56.823Z,99154.72
2023-04-16T05:53:58.769Z,99159.13
2023-04-16T05:55:04.322Z,99165.31
2023-04-16T05:56:14.170Z,99166.25
2023-04-16T05:57:16.065Z,99165.09
2023-04-16T05:58:18.047Z,99168.22
2023-04-16T05:59:19.978Z,99164.00
2023-04-16T06:00:21.792Z,99175.72
2023-04-16T06:01:23.686Z,99171.88
2023-04-16T06:02:25.952Z,99168.19
2023-04-16T06:03:28.126Z,99168.19
2023-04-16T06:04:32.163Z,99171.91
2023-04-16T06:05:36.000Z,99170.41
2023-04-16T06:06:38.075Z,99168.59
2023-04-16T06:07:39.970Z,99171.13
2023-04-16T06:08:45.870Z,99170.84
2023-04-16T06:09:47.663Z,99179.31
2023-04-16T06:10:50.729Z,99176.28
2023-04-16T06:11:52.467Z,99176.53
2023-04-16T06:12:54.348Z,99179.88
2023-04-16T06:13:56.300Z,99180.28
2023-04-16T06:14:58.010Z,99183.06
2023-04-16T06:16:03.588Z,99178.19
2023-04-16T06:17:08.252Z,99179.97
2023-04-16T06:18:12.386Z,99180.75
2023-04-16T06:19:14.370Z,99181.59
2023-04-16T06:20:16.547Z,99182.88
2023-04-16T06:21:23.009Z,99180.50
2023-04-16T06:22:25.246Z,99182.28
2023-04-16T06:23:27.049Z,99188.50
2023-04-16T06:24:31.189Z,99188.19
2023-04-16T06:25:33.167Z,99187.44
2023-04-16T06:26:36.528Z,99182.31
2023-04-16T06:27:38.547Z,99179.94
2023-04-16T06:28:46.844Z,99183.03
2023-04-16T06:29:51.541Z,99182.53
2023-04-16T06:30:53.495Z,99182.00
2023-04-16T06:31:55.721Z,99183.00
2023-04-16T06:32:57.882Z,99187.81
2023-04-16T06:33:59.713Z,99191.59
2023-04-16T06:35:04.781Z,99183.69
2023-04-16T06:36:10.994Z,99189.75
2023-04-16T06:37:12.980Z,99179.28
2023-04-16T06:38:15.203Z,99188.31
2023-04-16T06:39:17.165Z,99186.66
2023-04-16T06:40:19.194Z,99186.44
2023-04-16T06:41:25.467Z,99182.31
2023-04-16T06:42:27.734Z,99186.13
2023-04-16T06:43:31.865Z,99177.88
2023-04-16T06:44:38.959Z,99183.97
2023-04-16T06:45:40.796Z,99179.19
2023-04-16T06:46:42.900Z,99176.53
2023-04-16T06:47:44.820Z,99179.66
2023-04-16T06:48:46.864Z,99181.50
2023-04-16T06:49:48.639Z,99182.97
2023-04-16T06:50:55.841Z,99181.16
2023-04-16T06:52:18.712Z,99176.72
2023-04-16T06:53:22.272Z,99187.81
2023-04-16T06:54:24.184Z,99178.56
2023-04-16T06:55:26.233Z,99178.13
2023-04-16T06:56:28.034Z,99188.38
2023-04-16T06:57:33.344Z,99187.53
2023-04-16T06:58:36.253Z,99186.72
2023-04-16T06:59:39.955Z,99186.34
2023-04-16T07:00:42.029Z,99187.69
2023-04-16T07:01:43.905Z,99187.53
2023-04-16T07:02:45.855Z,99187.44
2023-04-16T07:03:47.995Z,99188.13
2023-04-16T07:04:50.059Z,99194.00
2023-04-16T07:05:51.844Z,99189.09
2023-04-16T07:06:56.025Z,99185.16
2023-04-16T07:07:59.406Z,99189.50
2023-04-16T07:09:01.301Z,99193.19
2023-04-16T07:10:03.108Z,99198.31
2023-04-16T07:11:05.535Z,99189.38
2023-04-16T07:12:07.916Z,99193.03
2023-04-16T07:13:15.550Z,99189.06
2023-04-16T07:14:26.945Z,99192.00
2023-04-16T07:15:28.934Z,99196.91
2023-04-16T07:16:30.775Z,99191.28
2023-04-16T07:17:33.282Z,99193.75
2023-04-16T07:18:37.566Z,99194.91
2023-04-16T07:19:39.520Z,99194.00
2023-04-16T07:20:41.353Z,99198.13
2023-04-16T07:21:43.226Z,99200.59
2023-04-16T07:22:48.094Z,99193.00
2023-04-16T07:23:49.846Z,99199.00
2023-04-16T07:24:51.582Z,99201.47
2023-04-16T07:25:56.857Z,99200.50
2023-04-16T07:26:58.618Z,99197.78
2023-04-16T07:28:00.599Z,99199.88
2023-04-16T07:29:03.415Z,99203.06
2023-04-16T07:30:05.892Z,99205.56
2023-04-16T07:31:08.073Z,99200.28
2023-04-16T07:32:15.130Z,99202.66
2023-04-16T07:33:17.327Z,99192.75
2023-04-16T07:34:21.795Z,99193.19
2023-04-16T07:35:24.183Z,99193.28
2023-04-16T07:36:27.283Z,99198.25
2023-04-16T07:37:29.596Z,99199.66
2023-04-16T07:38:31.476Z,99190.66
2023-04-16T07:39:33.390Z,99194.53
2023-04-16T07:40:36.292Z,99197.91
2023-04-16T07:41:37.906Z,99197.78
2023-04-16T07:42:39.491Z,99201.81
2023-04-16T07:43:41.078Z,99194.25
2023-04-16T07:44:46.366Z,99198.88
2023-04-16T07:45:48.189Z,99201.03
2023-04-16T07:46:50.126Z,99202.84
2023-04-16T07:47:52.114Z,99198.22
2023-04-16T07:48:54.106Z,99203.03
2023-04-16T07:49:59.181Z,99210.38
2023-04-16T07:51:01.008Z,99203.78
2023-04-16T07:52:02.794Z,99211.25
2023-04-16T07:53:04.624Z,99208.59
2023-04-16T07:54:06.524Z,99211.38
2023-04-16T07:55:11.722Z,99210.72
2023-04-16T07:56:22.855Z,99213.34
2023-04-16T07:57:27.061Z,99217.38
2023-04-16T07:58:28.882Z,99216.72
2023-04-16T07:59:30.741Z,99224.88
2023-04-16T08:00:32.501Z,99221.09
2023-04-16T08:01:34.300Z,99227.06
2023-04-16T08:02:36.228Z,99227.22
2023-04-16T08:03:38.493Z,99230.72
2023-04-16T08:04:43.322Z,99233.53
2023-04-16T08:05:45.065Z,99237.81
2023-04-16T08:06:46.897Z,99235.03
2023-04-16T08:07:48.635Z,99234.53
2023-04-16T08:08:50.443Z,99234.03
2023-04-16T08:09:52.746Z,99234.47
2023-04-16T08:10:54.652Z,99229.00
2023-04-16T08:11:59.070Z,99234.25
2023-04-16T08:13:02.140Z,99233.91
2023-04-16T08:14:03.881Z,99234.72
2023-04-16T08:15:06.618Z,99224.91
2023-04-16T08:16:10.172Z,99230.69
2023-04-16T08:17:14.155Z,99230.34
2023-04-16T08:18:16.044Z,99226.16
2023-04-16T08:19:18.011Z,99226.69
2023-04-16T08:20:20.127Z,99231.09
2023-04-16T08:21:22.434Z,99230.44
2023-04-16T08:22:27.988Z,99227.66
2023-04-16T08:23:29.712Z,99232.47
2023-04-16T08:24:31.496Z,99229.66
2023-04-16T08:25:33.110Z,99230.50
2023-04-16T08:26:34.780Z,99237.97
2023-04-16T08:27:36.525Z,99232.53
2023-04-16T08:28:38.084Z,99231.50
2023-04-16T08:29:39.650Z,99235.31
2023-04-16T08:30:41.233Z,99232.31
2023-04-16T08:31:42.975Z,99241.13
2023-04-16T08:32:48.630Z,99236.47
2023-04-16T08:33:51.536Z,99236.47
2023-04-16T08:34:53.251Z,99241.47
2023-04-16T08:35:54.842Z,99234.72
2023-04-16T08:36:56.429Z,99235.69
2023-04-16T08:37:58.909Z,99238.66
2023-04-16T08:39:01.768Z,99237.50
2023-04-16T08:40:06.592Z,99241.97
2023-04-16T08:41:11.901Z,99241.81
2023-04-16T08:42:23.619Z,99240.81
2023-04-16T08:43:26.208Z,99241.81
2023-04-16T08:44:32.497Z,99250.44
2023-04-16T08:45:35.048Z,99245.94
2023-04-16T08:46:38.151Z,99245.31
2023-04-16T08:47:46.918Z,99251.13
2023-04-16T08:48:49.558Z,99248.63
2023-04-16T08:49:58.881Z,99250.28
2023-04-16T08:51:01.862Z,99253.09
2023-04-16T08:52:06.172Z,99248.28
2023-04-16T08:53:11.131Z,99260.22
2023-04-16T08:54:20.828Z,99252.91
2023-04-16T08:55:26.242Z,99253.03
2023-04-16T08:56:28.520Z,99253.03
2023-04-16T08:57:55.673Z,99253.34
2023-04-16T08:58:57.688Z,99251.69
2023-04-16T09:00:00.740Z,99254.47
2023-04-16T09:01:06.106Z,99253.59
2023-04-16T09:02:11.886Z,99255.09
2023-04-16T09:03:13.874Z,99257.53
2023-04-16T09:04:16.197Z,99257.81
2023-04-16T09:05:18.273Z,99250.47
2023-04-16T09:06:19.927Z,99262.78
2023-04-16T09:07:22.138Z,99255.78
2023-04-16T09:08:24.231Z,99259.44
2023-04-16T09:09:26.742Z,99261.63
2023-04-16T09:10:28.464Z,99259.44
2023-04-16T09:11:30.305Z,99254.91
2023-04-16T09:12:32.138Z,99250.06
2023-04-16T09:13:33.740Z,99247.34
2023-04-16T09:14:35.338Z,99248.97
2023-04-16T09:15:37.864Z,99243.81
2023-04-16T09:17:49.804Z,99248.25
2023-04-16T09:18:59.872Z,99250.56
2023-04-16T09:20:01.533Z,99245.13
2023-04-16T09:21:03.335Z,99248.72
2023-04-16T09:22:04.989Z,99253.88
2023-04-16T09:23:06.625Z,99245.59
2023-04-16T09:24:09.594Z,99252.63
2023-04-16T09:25:11.413Z,99255.69
2023-04-16T09:26:13.488Z,99253.50
2023-04-16T09:27:15.090Z,99249.44
2023-04-16T09:28:38.932Z,99258.19
2023-04-16T09:29:41.480Z,99253.63
2023-04-16T09:30:43.109Z,99254.28
2023-04-16T09:32:01.985Z,99259.56
2023-04-16T09:33:19.381Z,99252.97
2023-04-16T09:34:21.028Z,99258.19
2023-04-16T09:35:22.662Z,99265.53
2023-04-16T09:36:24.316Z,99264.56
2023-04-16T09:37:27.672Z,99264.25
2023-04-16T09:38:47.606Z,99263.56
2023-04-16T09:40:00.698Z,99266.09
2023-04-16T09:41:08.446Z,99263.28
2023-04-16T09:42:10.885Z,99267.13
2023-04-16T09:43:14.707Z,99260.34
2023-04-16T09:44:16.338Z,99260.53
2023-04-16T09:45:17.937Z,99258.41
2023-04-16T09:46:19.612Z,99267.69
2023-04-16T09:47:22.488Z,99266.75
2023-04-16T09:48:34.241Z,99262.81
2023-04-16T09:49:41.730Z,99271.63
2023-04-16T09:52:00.167Z,99274.28
2023-04-16T09:53:02.490Z,99271.63
2023-04-16T09:54:07.042Z,99274.63
2023-04-16T09:55:08.712Z,99267.16
2023-04-16T09:56:12.230Z,99268.16
2023-04-16T09:57:14.397Z,99270.31
2023-04-16T09:58:19.128Z,99270.31
2023-04-16T09:59:22.219Z,99270.28
2023-04-16T10:03:11.222Z,99267.25
2023-04-16T10:04:13.008Z,99275.59
2023-04-16T10:05:17.304Z,99276.94
2023-04-16T10:06:23.612Z,99273.94
2023-04-16T10:07:29.021Z,99281.88
2023-04-16T10:08:30.600Z,99274.84
2023-04-16T10:09:37.367Z,99276.16
2023-04-16T10:10:39.227Z,99277.78
2023-04-16T10:11:40.894Z,99273.75
2023-04-16T10:12:42.589Z,99272.75
2023-04-16T10:13:44.349Z,99279.34
2023-04-16T10:14:47.347Z,99274.81
2023-04-16T10:15:50.174Z,99260.84
2023-04-16T10:16:52.177Z,99271.06
2023-04-16T10:17:54.247Z,99273.50
2023-04-16T10:18:56.705Z,99269.53
2023-04-16T10:19:58.560Z,99271.31
2023-04-16T10:21:00.453Z,99275.84
2023-04-16T10:22:03.328Z,99281.00
2023-04-16T10:23:05.432Z,99271.72
2023-04-16T10:24:08.505Z,99278.19
2023-04-16T10:25:10.331Z,99278.88
2023-04-16T10:26:12.345Z,99275.50
2023-04-16T10:27:13.925Z,99273.59
2023-04-16T10:28:16.605Z,99283.63
2023-04-16T10:29:20.425Z,99283.38
2023-04-16T10:30:22.740Z,99281.72
2023-04-16T10:31:25.837Z,99284.75
2023-04-16T10:32:28.008Z,99283.16
2023-04-16T10:33:33.777Z,99291.50
2023-04-16T10:34:35.932Z,99292.72
2023-04-16T10:35:40.321Z,99288.56
2023-04-16T10:36:42.431Z,99286.41
2023-04-16T10:37:43.984Z,99291.38
2023-04-16T10:38:50.843Z,99292.19
2023-04-16T10:39:52.520Z,99288.22
2023-04-16T10:41:02.792Z,99290.06
2023-04-16T10:42:11.875Z,99293.22
2023-04-16T10:43:17.947Z,99287.56
2023-04-16T10:44:19.754Z,99289.38
2023-04-16T10:45:27.321Z,99291.38
2023-04-16T10:46:33.860Z,99287.72
2023-04-16T10:47:40.317Z,99291.38
2023-04-16T10:48:49.652Z,99295.16
2023-04-16T10:49:52.362Z,99288.06
2023-04-16T10:50:55.864Z,99287.75
2023-04-16T10:52:01.032Z,99287.41
2023-04-16T10:53:23.466Z,99296.56
2023-04-16T10:54:30.428Z,99288.59
2023-04-16T10:55:32.031Z,99293.91
2023-04-16T10:56:34.548Z,99291.25
2023-04-16T10:57:36.171Z,99294.22
2023-04-16T10:58:37.769Z,99296.22
2023-04-16T10:59:42.854Z,99288.91
2023-04-16T11:00:50.717Z,99290.88
2023-04-16T11:01:58.279Z,99294.84
2023-04-16T11:03:00.008Z,99289.34
2023-04-16T11:04:21.919Z,99292.75
2023-04-16T11:05:24.562Z,99286.88
2023-04-16T11:06:27.343Z,99285.97
2023-04-16T11:07:35.568Z,99277.28
2023-04-16T11:08:51.109Z,99286.50
2023-04-16T11:09:58.830Z,99284.53
2023-04-16T11:11:01.280Z,99289.91
2023-04-16T11:12:06.157Z,99285.34
2023-04-16T11:13:07.919Z,99286.13
2023-04-16T11:14:11.690Z,99296.09
2023-04-16T11:15:17.379Z,99296.09
2023-04-16T11:16:18.971Z,99285.41
2023-04-16T11:17:21.809Z,99283.88
2023-04-16T11:18:24.228Z,99282.94
2023-04-16T11:19:25.839Z,99281.41
2023-04-16T11:20:28.426Z,99282.75
2023-04-16T11:21:30.003Z,99277.03
2023-04-16T11:22:35.478Z,99287.78
2023-04-16T11:23:50.044Z,99283.81
2023-04-16T11:24:56.248Z,99283.56
2023-04-16T11:25:57.829Z,99283.03
2023-04-16T11:26:59.780Z,99282.09
2023-04-16T11:28:02.409Z,99281.72
2023-04-16T11:29:14.379Z,99281.91
2023-04-16T11:30:17.349Z,99285.00
2023-04-16T11:31:18.977Z,99288.19
2023-04-16T11:32:21.283Z,99285.00
2023-04-16T11:33:24.959Z,99279.94
2023-04-16T11:34:26.694Z,99287.78
2023-04-16T11:35:28.436Z,99285.28
2023-04-16T11:36:45.739Z,99283.34
2023-04-16T11:37:47.765Z,99287.53
2023-04-16T11:38:49.361Z,99282.09
2023-04-16T11:39:52.952Z,99283.47
2023-04-16T11:40:54.544Z,99280.44
2023-04-16T11:41:56.225Z,99285.22
2023-04-16T11:43:02.889Z,99278.25
2023-04-16T11:44:20.872Z,99277.97
2023-04-16T11:45:22.459Z,99287.66
2023-04-16T11:46:37.253Z,99279.94
2023-04-16T11:47:49.390Z,99285.38
2023-04-16T11:48:54.799Z,99282.91
2023-04-16T11:49:57.211Z,99283.34
2023-04-16T11:50:59.009Z,99286.31
2023-04-16T11:52:00.572Z,99284.44
2023-04-16T11:53:05.640Z,99285.09
2023-04-16T11:54:10.371Z,99286.84
2023-04-16T11:55:13.438Z,99288.09
2023-04-16T11:56:15.381Z,99296.00
2023-04-16T11:57:27.814Z,99297.34
2023-04-16T11:58:29.400Z,99300.03
2023-04-16T11:59:30.977Z,99294.09
2023-04-16T12:00:35.234Z,99288.47
2023-04-16T12:01:38.209Z,99292.16
2023-04-16T12:02:44.648Z,99295.16
2023-04-16T12:03:46.846Z,99298.19
2023-04-16T12:04:48.661Z,99295.53
2023-04-16T12:05:50.270Z,99297.38
2023-04-16T12:07:14.538Z,99301.19
2023-04-16T12:08:29.242Z,99288.44
2023-04-16T12:09:30.803Z,99300.34
2023-04-16T12:10:34.289Z,99295.38
2023-04-16T12:11:41.997Z,99292.09
2023-04-16T12:12:43.606Z,99290.72
2023-04-16T12:14:08.504Z,99296.38
2023-04-16T12:15:10.271Z,99293.75
2023-04-16T12:16:19.539Z,99298.06
2023-04-16T12:17:21.881Z,99301.69
2023-04-16T12:18:25.329Z,99290.25
2023-04-16T12:19:26.851Z,99298.72
2023-04-16T12:20:39.866Z,99301.03
2023-04-16T12:21:47.808Z,99304.34
2023-04-16T12:22:49.571Z,99299.19
2023-04-16T12:23:53.715Z,99294.88
2023-04-16T12:24:59.337Z,99293.88
2023-04-16T12:26:07.905Z,99290.31
2023-04-16T12:27:09.553Z,99295.09
2023-04-16T12:28:13.004Z,99294.53
2023-04-16T12:29:32.154Z,99287.25
2023-04-16T12:30:34.006Z,99286.19